Time;durP1;ratioP1;P1;durP2;ratioP2;P2;SDS_P1;SDS_P2;PMS_P1;PMS_P2;Temp;Humidity;BMP_temperature;BMP_pressure;BME280_temperature;BME280_humidity;BME280_pressure;Samples;Min_cycle;Max_cycle;Signal;HPM_P1;HPM_P2
2022/08/09 00:01:29;;;;;;;0.00;0.00;;;15.90;99.90;;;;;;4960605;28;20542;-69
2022/08/09 00:04:19;;;;;;;0.00;0.00;;;16.00;99.90;;;;;;4960846;28;20757;-69
2022/08/09 00:07:03;;;;;;;0.00;0.00;;;16.00;99.90;;;;;;4961409;28;20571;-69
2022/08/09 00:09:37;;;;;;;0.00;0.00;;;15.90;99.90;;;;;;4961005;28;20475;-69
2022/08/09 00:12:06;;;;;;;0.00;0.00;;;15.80;99.90;;;;;;4960737;28;20754;-69
2022/08/09 00:14:34;;;;;;;0.00;0.00;;;15.80;99.90;;;;;;4960458;28;20830;-68
2022/08/09 00:17:05;;;;;;;0.00;0.00;;;15.90;99.90;;;;;;4960408;28;20518;-69
2022/08/09 00:19:34;;;;;;;0.00;0.00;;;15.80;99.90;;;;;;4959808;28;20595;-69
2022/08/09 00:22:02;;;;;;;0.00;0.00;;;15.80;99.90;;;;;;4960772;28;20455;-69
2022/08/09 00:24:31;;;;;;;0.00;0.00;;;15.70;99.90;;;;;;4959915;28;20729;-69
2022/08/09 00:26:59;;;;;;;0.00;0.00;;;15.70;99.90;;;;;;4960051;28;20822;-69
2022/08/09 00:29:28;;;;;;;0.00;0.00;;;15.70;99.90;;;;;;4960189;28;20901;-69
2022/08/09 00:32:16;;;;;;;0.00;0.00;;;15.70;99.90;;;;;;4959888;28;20947;-69
2022/08/09 00:34:56;;;;;;;0.00;0.00;;;15.70;99.90;;;;;;4961073;28;20440;-69
2022/08/09 00:37:25;;;;;;;0.00;0.00;;;15.70;99.90;;;;;;4959913;28;20443;-70
2022/08/09 00:39:57;;;;;;;0.00;0.00;;;15.70;99.90;;;;;;4959712;28;20605;-69
2022/08/09 00:42:40;;;;;;;0.00;0.00;;;15.70;99.90;;;;;;4959366;28;20856;-68
2022/08/09 00:45:27;;;;;;;0.00;0.00;;;15.70;99.90;;;;;;4959037;28;20455;-70
2022/08/09 00:47:55;;;;;;;0.00;0.00;;;15.60;99.90;;;;;;4960019;28;20462;-69
2022/08/09 00:50:25;;;;;;;0.00;0.00;;;15.60;99.90;;;;;;4960209;28;20480;-69
2022/08/09 00:52:54;;;;;;;0.00;0.00;;;15.60;99.90;;;;;;4960204;28;20451;-70
2022/08/09 00:55:25;;;;;;;0.00;0.00;;;15.50;99.90;;;;;;4960187;28;20440;-70
2022/08/09 00:58:13;;;;;;;0.00;0.00;;;15.50;99.90;;;;;;4960050;28;20475;-69
2022/08/09 01:00:52;;;;;;;0.00;0.00;;;15.40;99.90;;;;;;4960243;28;20442;-70
2022/08/09 01:03:27;;;;;;;0.00;0.00;;;15.30;99.90;;;;;;4959874;28;20839;-67
2022/08/09 01:06:05;;;;;;;0.00;0.00;;;15.30;99.90;;;;;;4961429;28;20522;-69
2022/08/09 01:08:55;;;;;;;0.00;0.00;;;15.30;99.90;;;;;;4960138;28;21141;-66
2022/08/09 01:11:39;;;;;;;0.00;0.00;;;15.30;99.90;;;;;;4959993;28;20475;-67
2022/08/09 01:14:26;;;;;;;0.00;0.00;;;15.30;99.90;;;;;;4960820;28;20460;-68
2022/08/09 01:17:00;;;;;;;0.00;0.00;;;15.20;99.90;;;;;;4960672;28;20530;-67
2022/08/09 01:19:41;;;;;;;0.00;0.00;;;15.30;99.90;;;;;;4960068;28;20478;-67
2022/08/09 01:25:56;;;;;;;0.00;0.00;;;15.30;99.90;;;;;;5052937;28;21056;-68
2022/08/09 01:28:27;;;;;;;0.00;0.00;;;15.20;99.90;;;;;;5052727;27;21184;-65
2022/08/09 01:30:58;;;;;;;0.00;0.00;;;15.20;99.90;;;;;;5052940;28;20440;-67
2022/08/09 01:33:29;;;;;;;0.00;0.00;;;15.10;99.90;;;;;;5052838;27;20496;-78
2022/08/09 01:36:02;;;;;;;0.00;0.00;;;15.10;99.90;;;;;;5043920;27;20463;-73
2022/08/09 01:38:37;;;;;;;0.00;0.00;;;15.20;99.90;;;;;;5036165;27;20720;-74
2022/08/09 01:41:16;;;;;;;0.00;0.00;;;15.20;99.90;;;;;;5038814;28;20479;-72
2022/08/09 01:43:49;;;;;;;0.00;0.00;;;15.30;99.90;;;;;;5035615;28;20480;-72
2022/08/09 01:46:22;;;;;;;0.00;0.00;;;15.30;99.90;;;;;;5036740;27;20468;-73
2022/08/09 01:48:57;;;;;;;0.00;0.00;;;15.40;99.90;;;;;;5031973;27;20559;-73
2022/08/09 01:51:29;;;;;;;0.00;0.00;;;15.40;99.90;;;;;;5032133;28;20448;-72
2022/08/09 01:54:02;;;;;;;0.00;0.00;;;15.40;99.90;;;;;;5031971;28;20432;-74
2022/08/09 01:56:37;;;;;;;0.00;0.00;;;15.40;99.90;;;;;;5036077;27;21023;-73
2022/08/09 01:59:11;;;;;;;0.00;0.00;;;15.40;99.90;;;;;;5043126;28;20830;-74
2022/08/09 02:01:45;;;;;;;0.00;0.00;;;15.40;99.90;;;;;;5050637;28;20439;-76
2022/08/09 02:04:28;;;;;;;0.00;0.00;;;15.40;99.90;;;;;;5051171;27;20553;-74
2022/08/09 02:07:12;;;;;;;0.00;0.00;;;15.40;99.90;;;;;;5051377;28;20726;-73
2022/08/09 02:10:04;;;;;;;0.00;0.00;;;15.40;99.90;;;;;;5051876;27;20734;-75
2022/08/09 02:12:34;;;;;;;0.00;0.00;;;15.30;99.90;;;;;;5051077;27;20686;-71
2022/08/09 02:15:06;;;;;;;0.00;0.00;;;15.20;99.90;;;;;;5051851;27;20423;-72
2022/08/09 02:20:38;;;;;;;0.00;0.00;;;15.20;99.90;;;;;;5855107;22;20496;-71
2022/08/09 02:23:12;;;;;;;0.00;0.00;;;15.20;99.90;;;;;;5016223;28;20969;-73
2022/08/09 02:25:46;;;;;;;0.00;0.00;;;15.20;99.90;;;;;;5014626;28;20481;-71
2022/08/09 02:28:23;;;;;;;0.00;0.00;;;15.10;99.90;;;;;;5014309;28;20758;-72
2022/08/09 02:30:57;;;;;;;0.00;0.00;;;15.10;99.90;;;;;;5014266;28;20866;-73
2022/08/09 02:33:29;;;;;;;0.00;0.00;;;15.20;99.90;;;;;;5015459;28;20461;-73
2022/08/09 02:36:20;;;;;;;0.00;0.00;;;15.20;99.90;;;;;;5005399;28;20832;-73
2022/08/09 02:38:55;;;;;;;0.00;0.00;;;15.20;99.90;;;;;;5001095;28;20580;-72
2022/08/09 02:41:27;;;;;;;0.00;0.00;;;15.10;99.90;;;;;;5001081;28;20477;-72
2022/08/09 02:44:00;;;;;;;0.00;0.00;;;15.10;99.90;;;;;;5001156;28;20662;-72
2022/08/09 02:46:39;;;;;;;0.00;0.00;;;15.10;99.90;;;;;;5001193;28;20449;-72
2022/08/09 02:49:10;;;;;;;0.00;0.00;;;15.10;99.90;;;;;;5000865;28;20470;-72
2022/08/09 02:51:41;;;;;;;0.00;0.00;;;15.10;99.90;;;;;;5000584;28;20528;-72
2022/08/09 02:54:13;;;;;;;0.00;0.00;;;15.10;99.90;;;;;;5000725;28;20533;-73
2022/08/09 02:56:44;;;;;;;0.00;0.00;;;15.10;99.90;;;;;;5000744;28;20500;-72
2022/08/09 02:59:22;;;;;;;0.00;0.00;;;15.10;99.90;;;;;;5000456;28;20469;-73
2022/08/09 03:02:06;;;;;;;0.00;0.00;;;15.10;99.90;;;;;;5000631;28;20457;-73
2022/08/09 03:04:39;;;;;;;0.00;0.00;;;15.10;99.90;;;;;;5000462;28;20757;-72
2022/08/09 03:07:09;;;;;;;0.00;0.00;;;15.00;99.90;;;;;;5000390;28;20446;-73
2022/08/09 03:09:42;;;;;;;0.00;0.00;;;14.90;99.90;;;;;;5000009;28;20438;-73
2022/08/09 03:12:24;;;;;;;0.00;0.00;;;14.90;99.90;;;;;;5000430;28;20704;-70
2022/08/09 03:14:53;;;;;;;0.00;0.00;;;14.90;99.90;;;;;;5000511;28;20525;-72
2022/08/09 03:17:24;;;;;;;0.00;0.00;;;14.90;99.90;;;;;;5000198;28;20937;-71
2022/08/09 03:19:57;;;;;;;0.00;0.00;;;14.90;99.90;;;;;;4999969;28;20438;-73
2022/08/09 03:22:32;;;;;;;0.00;0.00;;;14.90;99.90;;;;;;5000064;28;20684;-71
2022/08/09 03:25:10;;;;;;;0.00;0.00;;;14.90;99.90;;;;;;5000510;28;20571;-73
2022/08/09 03:28:00;;;;;;;0.00;0.00;;;14.90;99.90;;;;;;4999779;28;20985;-73
2022/08/09 03:30:29;;;;;;;0.00;0.00;;;14.90;99.90;;;;;;5000206;28;20590;-72
2022/08/09 03:33:08;;;;;;;0.00;0.00;;;14.80;99.90;;;;;;5000339;28;20441;-75
2022/08/09 03:35:46;;;;;;;0.00;0.00;;;14.80;99.90;;;;;;5000269;28;20452;-75
2022/08/09 03:38:34;;;;;;;0.00;0.00;;;14.70;99.90;;;;;;4999809;28;20477;-74
2022/08/09 03:41:04;;;;;;;0.00;0.00;;;14.60;99.90;;;;;;4999496;28;20989;-76
2022/08/09 03:43:32;;;;;;;0.00;0.00;;;14.60;99.90;;;;;;4999644;28;20987;-74
2022/08/09 03:46:03;;;;;;;0.00;0.00;;;14.70;99.90;;;;;;4999527;28;20486;-74
2022/08/09 03:48:53;;;;;;;0.00;0.00;;;14.70;99.90;;;;;;4999067;28;20462;-75
2022/08/09 03:51:21;;;;;;;0.00;0.00;;;14.70;99.90;;;;;;4999637;28;20476;-75
2022/08/09 03:54:09;;;;;;;0.00;0.00;;;14.60;99.90;;;;;;4999713;28;20478;-75
2022/08/09 03:56:39;;;;;;;0.00;0.00;;;14.70;99.90;;;;;;5000120;28;20533;-76
2022/08/09 03:59:09;;;;;;;0.00;0.00;;;14.70;99.90;;;;;;4999953;28;20489;-75
2022/08/09 04:01:45;;;;;;;0.00;0.00;;;14.70;99.90;;;;;;4999686;28;20438;-75
2022/08/09 04:04:16;;;;;;;0.00;0.00;;;14.60;99.90;;;;;;4999678;28;20441;-74
2022/08/09 04:06:45;;;;;;;0.00;0.00;;;14.70;99.90;;;;;;5000101;28;20509;-74
2022/08/09 04:09:16;;;;;;;0.00;0.00;;;14.70;99.90;;;;;;4999082;28;20796;-75
2022/08/09 04:12:35;;;;;;;0.00;0.00;;;14.60;99.90;;;;;;4999182;28;20453;-76
2022/08/09 04:15:04;;;;;;;0.00;0.00;;;14.70;99.90;;;;;;4999331;28;20587;-75
2022/08/09 04:17:52;;;;;;;0.00;0.00;;;14.70;99.90;;;;;;4999132;28;20835;-76
2022/08/09 04:20:26;;;;;;;0.00;0.00;;;14.60;99.90;;;;;;4999108;28;20951;-75
2022/08/09 04:22:55;;;;;;;0.00;0.00;;;14.60;99.90;;;;;;4999276;28;20923;-75
2022/08/09 04:25:25;;;;;;;0.00;0.00;;;14.60;99.90;;;;;;4998924;28;20794;-75
2022/08/09 04:27:55;;;;;;;0.00;0.00;;;14.60;99.90;;;;;;4999160;28;20486;-74
2022/08/09 04:30:30;;;;;;;0.00;0.00;;;14.70;99.90;;;;;;4998911;28;20840;-74
2022/08/09 04:33:00;;;;;;;0.07;0.00;;;14.70;99.90;;;;;;4999047;28;20444;-74
2022/08/09 04:35:30;;;;;;;0.00;0.00;;;14.70;99.90;;;;;;4999376;28;20448;-73
2022/08/09 04:37:59;;;;;;;0.00;0.00;;;14.70;99.90;;;;;;4999857;28;20500;-74
2022/08/09 04:43:12;;;;;;;0.00;0.00;;;14.70;99.90;;;;;;5001710;28;20526;-77
2022/08/09 04:45:42;;;;;;;0.00;0.00;;;14.70;99.90;;;;;;5006167;28;20496;-78
2022/08/09 04:48:21;;;;;;;0.00;0.00;;;14.50;99.90;;;;;;5007202;28;20466;-77
2022/08/09 04:51:01;;;;;;;0.00;0.00;;;14.50;99.90;;;;;;5005512;28;20450;-76
2022/08/09 04:53:29;;;;;;;0.00;0.00;;;14.50;99.90;;;;;;5002374;28;20452;-77
2022/08/09 04:55:58;;;;;;;0.00;0.00;;;14.50;99.90;;;;;;5000888;28;20466;-74
2022/08/09 04:58:27;;;;;;;0.00;0.00;;;14.50;99.90;;;;;;4999491;28;20472;-77
2022/08/09 05:00:58;;;;;;;0.00;0.00;;;14.50;99.90;;;;;;4999306;28;20504;-78
2022/08/09 05:03:27;;;;;;;0.00;0.00;;;14.60;99.90;;;;;;4999557;28;20477;-73
2022/08/09 05:06:11;;;;;;;0.00;0.00;;;14.60;99.90;;;;;;4999762;28;20481;-77
2022/08/09 05:08:55;;;;;;;0.00;0.00;;;14.70;99.90;;;;;;4999684;28;20469;-76
2022/08/09 05:11:28;;;;;;;0.00;0.00;;;14.70;99.90;;;;;;4999030;28;20460;-73
2022/08/09 05:14:02;;;;;;;0.00;0.00;;;14.80;99.90;;;;;;4999908;28;20533;-76
2022/08/09 05:16:34;;;;;;;0.00;0.00;;;14.80;99.90;;;;;;5000151;28;20434;-76
2022/08/09 05:19:22;;;;;;;0.00;0.00;;;14.80;99.90;;;;;;4999520;28;20473;-75
2022/08/09 05:21:59;;;;;;;0.00;0.00;;;14.80;99.90;;;;;;4999801;28;21097;-75
2022/08/09 05:24:27;;;;;;;0.00;0.00;;;14.90;99.90;;;;;;4999428;28;20937;-75
2022/08/09 05:26:55;;;;;;;0.00;0.00;;;14.80;99.90;;;;;;4999226;28;20532;-75
2022/08/09 05:29:23;;;;;;;0.00;0.00;;;14.90;99.90;;;;;;4999072;28;20465;-73
2022/08/09 05:31:59;;;;;;;0.00;0.00;;;14.90;99.90;;;;;;4999251;28;20523;-73
2022/08/09 05:34:29;;;;;;;0.00;0.00;;;15.00;99.90;;;;;;4999551;28;20433;-74
2022/08/09 05:37:01;;;;;;;0.00;0.00;;;15.10;99.90;;;;;;4999012;28;20533;-75
2022/08/09 05:39:33;;;;;;;0.00;0.00;;;15.10;99.90;;;;;;4998788;28;20469;-74
2022/08/09 05:42:09;;;;;;;0.00;0.00;;;15.20;99.90;;;;;;4998671;28;20438;-74
2022/08/09 05:44:49;;;;;;;0.00;0.00;;;15.20;99.90;;;;;;4998655;28;20612;-75
2022/08/09 05:47:18;;;;;;;0.00;0.00;;;15.30;99.90;;;;;;4998116;28;20474;-74
2022/08/09 05:49:50;;;;;;;0.00;0.00;;;15.30;99.90;;;;;;4997421;28;20446;-74
2022/08/09 05:52:40;;;;;;;0.00;0.00;;;15.40;99.90;;;;;;4987642;28;20449;-70
2022/08/09 05:55:09;;;;;;;0.00;0.00;;;15.50;99.90;;;;;;4987239;28;20504;-62
2022/08/09 05:57:48;;;;;;;0.00;0.00;;;15.50;99.90;;;;;;4996140;28;20469;-62
2022/08/09 06:00:24;;;;;;;0.00;0.00;;;15.60;99.90;;;;;;4978503;28;20445;-64
2022/08/09 06:02:55;;;;;;;0.00;0.00;;;15.60;99.90;;;;;;4978756;28;20443;-64
2022/08/09 06:05:24;;;;;;;0.00;0.00;;;15.70;99.90;;;;;;4981369;28;20545;-63
2022/08/09 06:08:13;;;;;;;0.00;0.00;;;15.70;99.90;;;;;;4989039;28;20821;-63
2022/08/09 06:10:52;;;;;;;0.00;0.00;;;15.90;99.90;;;;;;4991459;28;20478;-63
2022/08/09 06:13:20;;;;;;;0.00;0.00;;;15.90;99.90;;;;;;4995620;28;20457;-64
2022/08/09 06:15:48;;;;;;;0.00;0.00;;;16.00;99.90;;;;;;4990065;28;20669;-63
2022/08/09 06:18:19;;;;;;;0.00;0.00;;;16.10;99.90;;;;;;4988312;28;20538;-63
2022/08/09 06:20:53;;;;;;;0.00;0.00;;;16.20;99.90;;;;;;4991009;28;20435;-63
2022/08/09 06:23:28;;;;;;;0.00;0.00;;;16.30;99.90;;;;;;4996016;28;20996;-65
2022/08/09 06:26:17;;;;;;;0.00;0.00;;;16.50;99.90;;;;;;5001370;28;20759;-65
2022/08/09 06:28:49;;;;;;;0.00;0.00;;;16.60;99.90;;;;;;5001247;28;20797;-66
2022/08/09 06:31:31;;;;;;;0.00;0.00;;;16.70;99.90;;;;;;4992223;28;20557;-65
2022/08/09 06:34:20;;;;;;;0.00;0.00;;;16.70;99.90;;;;;;4995160;28;20461;-63
2022/08/09 06:36:50;;;;;;;0.00;0.00;;;16.90;99.90;;;;;;4987164;28;20550;-65
2022/08/09 06:39:28;;;;;;;0.00;0.00;;;16.90;99.90;;;;;;4991337;28;20560;-62
2022/08/09 06:42:16;;;;;;;0.00;0.00;;;17.00;99.90;;;;;;4991595;28;20707;-64
2022/08/09 06:44:46;;;;;;;0.00;0.00;;;17.10;99.90;;;;;;4993222;28;20435;-63
2022/08/09 06:47:21;;;;;;;0.00;0.00;;;17.20;99.90;;;;;;4990969;28;20846;-63
2022/08/09 06:49:50;;;;;;;0.00;0.00;;;17.30;99.90;;;;;;4997993;28;20446;-64
2022/08/09 06:52:44;;;;;;;0.00;0.00;;;17.40;99.90;;;;;;5001509;28;20591;-64
2022/08/09 06:55:16;;;;;;;0.00;0.00;;;17.50;99.90;;;;;;4994867;28;20467;-63
2022/08/09 06:57:43;;;;;;;0.00;0.00;;;17.60;99.90;;;;;;5001195;28;20458;-63
2022/08/09 07:00:30;;;;;;;0.00;0.00;;;17.70;99.90;;;;;;4981948;28;20545;-63
2022/08/09 07:03:18;;;;;;;0.00;0.00;;;17.70;99.90;;;;;;4984056;28;20966;-62
2022/08/09 07:05:56;;;;;;;0.00;0.00;;;17.80;99.90;;;;;;4990295;28;20472;-63
2022/08/09 07:08:33;;;;;;;0.00;0.00;;;17.80;99.90;;;;;;4985916;28;20505;-63
2022/08/09 07:11:03;;;;;;;0.00;0.00;;;18.00;99.90;;;;;;4982679;28;20530;-63
2022/08/09 07:13:32;;;;;;;0.00;0.00;;;18.10;99.90;;;;;;4993875;28;20443;-62
2022/08/09 07:16:20;;;;;;;0.00;0.00;;;18.20;99.90;;;;;;5001292;28;20434;-63
2022/08/09 07:19:09;;;;;;;0.00;0.00;;;18.40;99.90;;;;;;4989506;28;20457;-63
2022/08/09 07:21:44;;;;;;;0.00;0.00;;;18.50;99.90;;;;;;4996766;28;20572;-66
2022/08/09 07:24:22;;;;;;;0.00;0.00;;;18.70;99.90;;;;;;4994467;28;21197;-63
2022/08/09 07:27:08;;;;;;;0.00;0.00;;;18.70;99.90;;;;;;4993726;28;20493;-67
2022/08/09 07:29:54;;;;;;;0.00;0.00;;;18.90;99.90;;;;;;4996232;28;20959;-64
2022/08/09 07:32:24;;;;;;;0.00;0.00;;;19.00;99.90;;;;;;4999439;28;20456;-61
2022/08/09 07:35:00;;;;;;;0.00;0.00;;;19.10;99.90;;;;;;4996385;28;20476;-64
2022/08/09 07:37:29;;;;;;;0.00;0.00;;;19.20;99.90;;;;;;4995810;28;20465;-64
2022/08/09 07:40:13;;;;;;;0.00;0.00;;;19.20;99.90;;;;;;4993073;28;20455;-64
2022/08/09 07:42:50;;;;;;;0.00;0.00;;;19.30;99.90;;;;;;4984152;28;20952;-64
2022/08/09 07:45:25;;;;;;;0.00;0.00;;;19.40;99.90;;;;;;4997247;28;20453;-63
2022/08/09 07:48:08;;;;;;;0.00;0.00;;;19.40;99.90;;;;;;4991724;28;20552;-61
2022/08/09 07:50:57;;;;;;;0.00;0.00;;;19.50;99.90;;;;;;4985665;28;20435;-63
2022/08/09 07:53:46;;;;;;;0.00;0.00;;;19.60;99.90;;;;;;4993579;28;20438;-63
2022/08/09 07:56:34;;;;;;;0.00;0.00;;;19.70;99.90;;;;;;4990094;28;20685;-64
2022/08/09 07:59:06;;;;;;;0.00;0.00;;;19.80;99.90;;;;;;4993107;28;20466;-61
2022/08/09 08:01:54;;;;;;;0.00;0.00;;;19.90;99.90;;;;;;4994457;28;21116;-63
2022/08/09 08:04:22;;;;;;;0.00;0.00;;;19.90;99.90;;;;;;4996941;28;20568;-63
2022/08/09 08:06:58;;;;;;;0.00;0.00;;;20.10;99.90;;;;;;4987531;28;20470;-63
2022/08/09 08:09:36;;;;;;;0.00;0.00;;;20.20;99.90;;;;;;4982762;28;20443;-63
2022/08/09 08:12:18;;;;;;;0.00;0.00;;;20.20;99.90;;;;;;4982546;28;20606;-63
2022/08/09 08:14:57;;;;;;;0.00;0.00;;;20.40;99.90;;;;;;4982573;28;20438;-63
2022/08/09 08:17:26;;;;;;;0.00;0.00;;;20.50;99.90;;;;;;4982199;28;20439;-63
2022/08/09 08:20:14;;;;;;;0.00;0.00;;;20.60;99.90;;;;;;4979472;28;20572;-63
2022/08/09 08:22:44;;;;;;;0.00;0.00;;;20.70;99.90;;;;;;4979374;28;20786;-63
2022/08/09 08:25:15;;;;;;;0.00;0.00;;;20.70;99.90;;;;;;4979546;28;20438;-63
2022/08/09 08:27:46;;;;;;;0.00;0.00;;;20.80;99.90;;;;;;4979118;28;20706;-63
2022/08/09 08:30:18;;;;;;;0.00;0.00;;;20.90;99.90;;;;;;4979232;28;20451;-64
2022/08/09 08:32:46;;;;;;;0.00;0.00;;;21.00;99.90;;;;;;4979230;28;20474;-64
2022/08/09 08:35:21;;;;;;;0.00;0.00;;;21.10;99.90;;;;;;4979445;28;20439;-63
2022/08/09 08:37:50;;;;;;;0.00;0.00;;;21.10;99.90;;;;;;4979594;28;21048;-63
2022/08/09 08:40:32;;;;;;;0.00;0.00;;;21.20;99.90;;;;;;4979344;28;20427;-63
2022/08/09 08:43:00;;;;;;;0.00;0.00;;;21.40;99.90;;;;;;4979522;28;20462;-63
2022/08/09 08:45:34;;;;;;;0.00;0.00;;;21.50;99.90;;;;;;4979080;28;20479;-63
2022/08/09 08:48:05;;;;;;;0.00;0.00;;;21.70;99.90;;;;;;4979070;28;20497;-63
2022/08/09 08:50:37;;;;;;;0.00;0.00;;;21.80;99.90;;;;;;4978694;28;20447;-63
2022/08/09 08:53:05;;;;;;;0.00;0.00;;;21.90;99.90;;;;;;4978981;28;20993;-63
2022/08/09 08:55:43;;;;;;;0.00;0.00;;;22.00;99.90;;;;;;4979546;28;20455;-63
2022/08/09 08:58:11;;;;;;;0.00;0.00;;;22.20;99.90;;;;;;4979006;28;20535;-63
2022/08/09 09:00:41;;;;;;;0.00;0.00;;;22.10;99.90;;;;;;4978883;28;20440;-63
2022/08/09 09:03:15;;;;;;;0.00;0.00;;;22.10;99.90;;;;;;4978895;28;20475;-63
2022/08/09 09:06:01;;;;;;;0.00;0.00;;;22.10;99.90;;;;;;4978997;28;20748;-63
2022/08/09 09:08:35;;;;;;;0.00;0.00;;;22.10;99.90;;;;;;4978985;28;20795;-63
2022/08/09 09:11:08;;;;;;;0.00;0.00;;;22.10;99.90;;;;;;4978884;28;20440;-62
2022/08/09 09:13:48;;;;;;;0.00;0.00;;;22.20;99.90;;;;;;4979197;28;20487;-64
2022/08/09 09:16:27;;;;;;;0.00;0.00;;;22.30;99.90;;;;;;4978694;28;20967;-63
2022/08/09 09:18:59;;;;;;;0.00;0.00;;;22.50;99.90;;;;;;4979068;28;20585;-63
2022/08/09 09:22:02;;;;;;;0.00;0.00;;;22.50;99.90;;;;;;4978512;28;20878;-62
2022/08/09 09:24:33;;;;;;;0.00;0.00;;;22.40;99.90;;;;;;4978502;28;20726;-67
2022/08/09 09:27:06;;;;;;;0.00;0.00;;;22.40;99.90;;;;;;4978602;28;20637;-66
2022/08/09 09:29:37;;;;;;;0.00;0.00;;;22.40;99.90;;;;;;4978237;28;20480;-67
2022/08/09 09:32:29;;;;;;;0.00;0.00;;;22.50;99.90;;;;;;4978680;28;20828;-65
2022/08/09 09:35:04;;;;;;;0.00;0.00;;;22.60;99.90;;;;;;4978236;28;21004;-64
2022/08/09 09:37:37;;;;;;;0.00;0.00;;;22.70;99.90;;;;;;4979035;28;20747;-64
2022/08/09 09:40:09;;;;;;;0.00;0.00;;;22.80;99.90;;;;;;4977975;28;21029;-62
2022/08/09 09:42:39;;;;;;;0.00;0.00;;;22.90;99.90;;;;;;4978359;28;20441;-64
2022/08/09 09:45:13;;;;;;;0.00;0.00;;;23.00;99.90;;;;;;4988771;28;20442;-64
2022/08/09 09:47:57;;;;;;;0.00;0.00;;;23.20;99.90;;;;;;4992701;28;20877;-64
2022/08/09 09:50:40;;;;;;;0.00;0.00;;;23.40;99.90;;;;;;4987442;28;20457;-63
2022/08/09 09:53:20;;;;;;;0.00;0.00;;;23.50;99.90;;;;;;4982998;28;20438;-64
2022/08/09 09:55:56;;;;;;;0.00;0.00;;;23.70;99.90;;;;;;4983088;28;21001;-63
2022/08/09 09:58:44;;;;;;;0.00;0.00;;;23.90;99.90;;;;;;4991631;28;20932;-63
2022/08/09 10:01:20;;;;;;;0.00;0.00;;;24.00;99.90;;;;;;4991556;28;20434;-63
2022/08/09 10:04:14;;;;;;;0.00;0.00;;;24.10;99.90;;;;;;4990827;28;20817;-63
2022/08/09 10:06:49;;;;;;;0.00;0.00;;;24.10;99.90;;;;;;4992320;28;20517;-63
2022/08/09 10:09:21;;;;;;;0.00;0.00;;;24.20;99.90;;;;;;4984434;28;20757;-63
2022/08/09 10:11:57;;;;;;;0.00;0.00;;;24.30;99.90;;;;;;4997347;28;20565;-63
2022/08/09 10:14:41;;;;;;;0.00;0.00;;;24.30;99.90;;;;;;4997294;28;20515;-63
2022/08/09 10:17:18;;;;;;;0.00;0.00;;;24.40;99.90;;;;;;5001017;28;20464;-63
2022/08/09 10:20:24;;;;;;;0.00;0.00;;;24.40;99.90;;;;;;5001352;28;20592;-63
2022/08/09 10:23:13;;;;;;;0.00;0.00;;;24.50;99.90;;;;;;4988947;28;20551;-64
2022/08/09 10:25:46;;;;;;;0.00;0.00;;;24.50;99.90;;;;;;4993495;28;20979;-63
2022/08/09 10:28:35;;;;;;;0.00;0.00;;;24.60;99.90;;;;;;4994032;28;20694;-63
2022/08/09 10:31:04;;;;;;;0.00;0.00;;;24.70;99.90;;;;;;4986987;28;20498;-62
2022/08/09 10:33:52;;;;;;;0.00;0.00;;;24.80;99.90;;;;;;5000383;28;20460;-63
2022/08/09 10:36:42;;;;;;;0.00;0.00;;;24.80;99.90;;;;;;5002038;28;20455;-63
2022/08/09 10:39:12;;;;;;;0.00;0.00;;;24.80;99.90;;;;;;4989023;28;20552;-63
2022/08/09 10:41:45;;;;;;;0.00;0.00;;;24.80;99.90;;;;;;5002264;28;20480;-63
2022/08/09 10:44:17;;;;;;;0.00;0.00;;;25.00;99.90;;;;;;4997841;28;20459;-64
2022/08/09 10:47:18;;;;;;;0.00;0.00;;;25.00;99.90;;;;;;5003426;28;20500;-64
2022/08/09 10:50:18;;;;;;;0.00;0.00;;;25.00;99.90;;;;;;4990074;28;20555;-64
2022/08/09 10:53:05;;;;;;;0.00;0.00;;;24.90;99.90;;;;;;4998723;28;20544;-63
2022/08/09 10:55:38;;;;;;;0.00;0.00;;;24.80;99.90;;;;;;4996349;28;20459;-63
2022/08/09 10:58:33;;;;;;;0.00;0.00;;;24.70;99.90;;;;;;4998588;28;20485;-64
2022/08/09 11:01:05;;;;;;;0.00;0.00;;;24.70;99.90;;;;;;4992449;28;20912;-63
2022/08/09 11:04:14;;;;;;;0.00;0.00;;;24.70;99.90;;;;;;4988316;28;20460;-65
2022/08/09 11:07:29;;;;;;;0.00;0.00;;;24.60;99.90;;;;;;4997642;28;20840;-64
2022/08/09 11:10:52;;;;;;;0.00;0.00;;;24.60;99.90;;;;;;4993837;28;20483;-65
2022/08/09 11:13:29;;;;;;;0.00;0.00;;;24.50;99.90;;;;;;4981828;28;20444;-65
2022/08/09 11:16:37;;;;;;;0.00;0.00;;;24.60;99.90;;;;;;4981877;28;20454;-65
2022/08/09 11:19:07;;;;;;;0.00;0.00;;;24.70;99.90;;;;;;4983764;28;20492;-65
2022/08/09 11:21:55;;;;;;;0.00;0.00;;;24.70;99.90;;;;;;4998522;28;20519;-63
2022/08/09 11:25:03;;;;;;;0.00;0.00;;;24.80;99.90;;;;;;4981584;28;20792;-62
2022/08/09 11:27:35;;;;;;;0.00;0.00;;;25.00;99.90;;;;;;4982816;28;20470;-67
2022/08/09 11:30:33;;;;;;;0.00;0.00;;;25.10;99.90;;;;;;4983347;28;20476;-67
2022/08/09 11:33:04;;;;;;;0.00;0.00;;;25.30;99.90;;;;;;4991374;28;20519;-67
2022/08/09 11:35:37;;;;;;;0.00;0.00;;;25.40;99.90;;;;;;4997688;28;20441;-67
2022/08/09 11:38:20;;;;;;;0.00;0.00;;;25.40;99.90;;;;;;4979682;28;20474;-65
2022/08/09 11:40:55;;;;;;;0.00;0.00;;;25.40;99.90;;;;;;4999918;28;20669;-65
2022/08/09 11:43:42;;;;;;;0.00;0.00;;;25.50;99.90;;;;;;4999358;28;20805;-64
2022/08/09 11:46:12;;;;;;;0.00;0.00;;;25.40;99.90;;;;;;4994427;28;20835;-66
2022/08/09 11:48:54;;;;;;;0.00;0.00;;;25.30;99.90;;;;;;4980024;28;20541;-66
2022/08/09 11:51:23;;;;;;;0.00;0.00;;;25.20;99.90;;;;;;4980233;28;21016;-64
2022/08/09 11:54:14;;;;;;;0.00;0.00;;;25.30;99.90;;;;;;4989844;28;20460;-64
2022/08/09 11:57:36;;;;;;;0.00;0.00;;;25.00;99.90;;;;;;4982984;28;20809;-64
2022/08/09 12:00:25;;;;;;;0.00;0.00;;;24.80;99.90;;;;;;4906522;29;20445;-64
2022/08/09 12:02:57;;;;;;;0.00;0.00;;;24.70;99.90;;;;;;4994257;28;20512;-64
2022/08/09 12:05:34;;;;;;;0.00;0.00;;;24.60;99.90;;;;;;4991495;28;20487;-64
2022/08/09 12:08:10;;;;;;;0.00;0.00;;;24.50;99.90;;;;;;4990598;28;20744;-67
2022/08/09 12:10:44;;;;;;;0.00;0.00;;;24.60;99.90;;;;;;4998092;28;20506;-67
2022/08/09 12:13:29;;;;;;;0.00;0.00;;;24.60;99.90;;;;;;4998466;28;20455;-67
2022/08/09 12:16:19;;;;;;;0.00;0.00;;;24.70;99.90;;;;;;4982077;28;20726;-65
2022/08/09 12:19:08;;;;;;;0.00;0.00;;;24.80;99.90;;;;;;4998249;28;20576;-64
2022/08/09 12:21:40;;;;;;;0.00;0.00;;;25.00;99.90;;;;;;4989551;28;20461;-64
2022/08/09 12:24:20;;;;;;;0.00;0.00;;;25.10;99.90;;;;;;4978465;28;20535;-65
2022/08/09 12:26:55;;;;;;;0.00;0.00;;;25.20;99.90;;;;;;4979226;28;20450;-64
2022/08/09 12:29:53;;;;;;;0.00;0.00;;;25.30;99.90;;;;;;4985749;28;20473;-65
2022/08/09 12:32:41;;;;;;;0.00;0.00;;;25.50;99.90;;;;;;4992451;28;20461;-65
2022/08/09 12:35:12;;;;;;;0.00;0.00;;;25.70;99.90;;;;;;4986639;28;20922;-63
2022/08/09 12:37:48;;;;;;;0.00;0.00;;;25.90;99.90;;;;;;4983136;28;20467;-63
2022/08/09 12:40:21;;;;;;;0.00;0.00;;;26.20;99.90;;;;;;4988183;28;20489;-64
2022/08/09 12:42:51;;;;;;;0.00;0.00;;;26.50;99.90;;;;;;4982753;28;20440;-63
2022/08/09 12:45:20;;;;;;;0.00;0.00;;;26.60;99.90;;;;;;4977522;28;20440;-64
2022/08/09 12:48:05;;;;;;;0.00;0.00;;;26.70;99.90;;;;;;4977886;28;20994;-65
2022/08/09 12:50:49;;;;;;;0.00;0.00;;;26.70;99.90;;;;;;4978679;28;20471;-64
2022/08/09 12:53:25;;;;;;;0.00;0.00;;;26.60;99.90;;;;;;4979206;28;20484;-65
2022/08/09 12:56:07;;;;;;;0.00;0.00;;;26.50;99.90;;;;;;4979962;28;20452;-65
2022/08/09 12:59:08;;;;;;;0.00;0.00;;;26.30;99.90;;;;;;4985731;28;20461;-65
2022/08/09 13:01:38;;;;;;;0.00;0.00;;;26.20;99.90;;;;;;4993366;28;20454;-63
2022/08/09 13:04:17;;;;;;;0.00;0.00;;;26.20;99.90;;;;;;4999130;28;20520;-67
2022/08/09 13:07:15;;;;;;;0.00;0.00;;;26.00;99.90;;;;;;4981871;28;20431;-64
2022/08/09 13:09:43;;;;;;;0.00;0.00;;;25.90;99.90;;;;;;4983564;28;20569;-65
2022/08/09 13:12:27;;;;;;;0.00;0.00;;;25.80;99.90;;;;;;4983365;28;20461;-63
2022/08/09 13:15:03;;;;;;;0.00;0.00;;;25.70;99.90;;;;;;4990645;28;20441;-64
2022/08/09 13:17:34;;;;;;;0.00;0.00;;;25.70;99.90;;;;;;4985920;28;20478;-65
2022/08/09 13:20:32;;;;;;;0.00;0.00;;;25.80;99.90;;;;;;4985707;28;20445;-65
2022/08/09 13:23:18;;;;;;;0.00;0.00;;;25.90;99.90;;;;;;4985590;28;20466;-65
2022/08/09 13:26:06;;;;;;;0.00;0.00;;;25.70;99.90;;;;;;4991799;28;20438;-62
2022/08/09 13:28:37;;;;;;;0.00;0.00;;;25.70;99.90;;;;;;4985559;28;20494;-63
2022/08/09 13:31:08;;;;;;;0.00;0.00;;;25.80;99.90;;;;;;4989487;28;20528;-64
2022/08/09 13:33:56;;;;;;;0.00;0.00;;;25.90;99.90;;;;;;4999438;28;20439;-64
2022/08/09 13:36:24;;;;;;;0.00;0.00;;;26.00;99.90;;;;;;4998614;28;21113;-64
2022/08/09 13:39:11;;;;;;;0.00;0.00;;;26.20;99.90;;;;;;4998609;28;20494;-65
2022/08/09 13:42:01;;;;;;;0.00;0.00;;;26.40;99.90;;;;;;4998975;28;20450;-64
2022/08/09 13:44:30;;;;;;;0.00;0.00;;;26.50;99.90;;;;;;4998304;28;20821;-64
2022/08/09 13:46:58;;;;;;;0.00;0.00;;;26.70;99.90;;;;;;4998262;28;20444;-65
2022/08/09 13:49:47;;;;;;;0.00;0.00;;;26.80;99.90;;;;;;4998513;28;20451;-65
2022/08/09 13:52:28;;;;;;;0.00;0.00;;;26.80;99.90;;;;;;4998461;28;21015;-63